createdAt,value
2022-09-03T00:00:28.406Z,56.26
2022-09-03T00:01:28.439Z,56.16
2022-09-03T00:02:28.461Z,56.45
2022-09-03T00:03:28.344Z,56.64
2022-09-03T00:04:28.333Z,56.74
2022-09-03T00:05:28.319Z,57.50
2022-09-03T00:06:28.279Z,57.70
2022-09-03T00:07:28.276Z,58.05
2022-09-03T00:08:28.319Z,57.60
2022-09-03T00:09:28.201Z,58.37
2022-09-03T00:10:28.192Z,58.08
2022-09-03T00:11:28.186Z,57.89
2022-09-03T00:12:28.167Z,57.70
2022-09-03T00:13:28.125Z,58.46
2022-09-03T00:14:28.109Z,57.60
2022-09-03T00:15:28.102Z,58.08
2022-09-03T00:16:28.197Z,58.27
2022-09-03T00:17:28.047Z,58.65
2022-09-03T00:18:28.035Z,58.46
2022-09-03T00:19:28.030Z,59.04
2022-09-03T00:20:28.018Z,58.75
2022-09-03T00:21:27.966Z,58.65
2022-09-03T00:22:27.957Z,58.65
2022-09-03T00:23:27.955Z,58.56
2022-09-03T00:24:27.892Z,58.94
2022-09-03T00:25:27.885Z,59.04
2022-09-03T00:26:27.874Z,59.13
2022-09-03T00:27:28.691Z,59.42
2022-09-03T00:28:27.804Z,59.33
2022-09-03T00:29:27.816Z,59.23
2022-09-03T00:30:27.793Z,59.42
2022-09-03T00:31:28.684Z,59.71
2022-09-03T00:32:27.729Z,59.42
2022-09-03T00:33:27.737Z,60.00
2022-09-03T00:34:27.718Z,60.00
2022-09-03T00:35:27.659Z,59.90
2022-09-03T00:36:27.651Z,60.09
2022-09-03T00:37:27.645Z,59.61
2022-09-03T00:38:27.635Z,59.61
2022-09-03T00:39:27.701Z,59.42
2022-09-03T00:40:27.578Z,59.33
2022-09-03T00:41:27.572Z,59.33
2022-09-03T00:42:27.563Z,59.52
2022-09-03T00:43:27.491Z,59.33
2022-09-03T00:44:27.505Z,59.61
2022-09-03T00:45:27.485Z,60.09
2022-09-03T00:46:27.503Z,59.90
2022-09-03T00:47:27.410Z,60.28
2022-09-03T00:48:27.953Z,60.41
2022-09-03T00:49:27.404Z,60.50
2022-09-03T00:50:27.407Z,60.31
2022-09-03T00:51:27.329Z,60.22
2022-09-03T00:52:28.817Z,61.18
2022-09-03T00:53:27.319Z,60.99
2022-09-03T00:54:27.337Z,61.08
2022-09-03T00:55:27.253Z,60.89
2022-09-03T00:56:27.243Z,60.89
2022-09-03T00:57:27.259Z,60.70
2022-09-03T00:58:27.193Z,60.79
2022-09-03T00:59:27.198Z,60.60
2022-09-03T01:00:27.178Z,61.05
2022-09-03T01:01:27.264Z,60.89
2022-09-03T01:02:27.194Z,60.86
2022-09-03T01:03:27.103Z,60.79
2022-09-03T01:04:27.093Z,60.76
2022-09-03T01:05:27.063Z,60.60
2022-09-03T01:06:27.040Z,61.08
2022-09-03T01:07:27.028Z,60.99
2022-09-03T01:08:27.021Z,61.08
2022-09-03T01:09:26.954Z,60.86
2022-09-03T01:10:26.962Z,61.08
2022-09-03T01:11:26.947Z,60.70
2022-09-03T01:12:26.943Z,60.99
2022-09-03T01:13:26.882Z,60.57
2022-09-03T01:14:26.890Z,60.60
2022-09-03T01:15:26.867Z,60.57
2022-09-03T01:16:26.864Z,60.38
2022-09-03T01:17:26.811Z,60.47
2022-09-03T01:18:26.814Z,60.38
2022-09-03T01:19:26.805Z,60.50
2022-09-03T01:20:26.828Z,60.41
2022-09-03T01:21:26.715Z,60.28
2022-09-03T01:22:26.698Z,60.38
2022-09-03T01:23:27.654Z,60.38
2022-09-03T01:24:26.654Z,60.67
2022-09-03T01:25:26.658Z,60.00
2022-09-03T01:26:26.628Z,60.09
2022-09-03T01:27:26.636Z,60.00
2022-09-03T01:28:26.571Z,60.09
2022-09-03T01:29:26.568Z,60.00
2022-09-03T01:30:26.541Z,59.33
2022-09-03T01:31:26.543Z,59.33
2022-09-03T01:32:26.506Z,59.52
2022-09-03T01:33:26.485Z,59.71
2022-09-03T01:34:26.479Z,59.13
2022-09-03T01:35:27.171Z,59.42
2022-09-03T01:36:26.406Z,58.84
2022-09-03T01:37:26.393Z,59.42
2022-09-03T01:38:26.419Z,58.84
2022-09-03T01:39:26.391Z,58.84
2022-09-03T01:40:26.332Z,59.23
2022-09-03T01:41:26.314Z,59.33
2022-09-03T01:42:26.283Z,59.04
2022-09-03T01:43:26.250Z,59.13
2022-09-03T01:44:26.255Z,59.13
2022-09-03T01:45:26.228Z,59.23
2022-09-03T01:46:26.205Z,58.84
2022-09-03T01:47:26.195Z,58.65
2022-09-03T01:48:26.174Z,58.65
2022-09-03T01:49:26.142Z,58.75
2022-09-03T01:50:26.117Z,58.65
2022-09-03T01:51:26.124Z,59.42
2022-09-03T01:52:26.105Z,59.13
2022-09-03T01:53:26.054Z,59.33
2022-09-03T01:54:26.017Z,59.23
2022-09-03T01:55:26.004Z,58.94
2022-09-03T01:56:26.012Z,59.04
2022-09-03T01:57:35.335Z,59.42
2022-09-03T01:58:25.938Z,59.71
2022-09-03T01:59:25.955Z,59.61
2022-09-03T02:00:25.896Z,59.90
2022-09-03T02:01:25.941Z,59.97
2022-09-03T02:02:25.994Z,60.06
2022-09-03T02:03:25.856Z,60.35
2022-09-03T02:04:26.718Z,59.87
2022-09-03T02:05:25.815Z,59.80
2022-09-03T02:06:25.770Z,60.25
2022-09-03T02:07:25.782Z,59.87
2022-09-03T02:08:25.818Z,60.06
2022-09-03T02:09:29.279Z,59.87
2022-09-03T02:10:25.698Z,60.25
2022-09-03T02:11:25.657Z,60.06
2022-09-03T02:12:25.719Z,59.97
2022-09-03T02:13:25.627Z,60.06
2022-09-03T02:14:25.615Z,59.77
2022-09-03T02:15:25.620Z,60.25
2022-09-03T02:16:25.557Z,60.44
2022-09-03T02:17:25.563Z,60.35
2022-09-03T02:18:25.797Z,60.35
2022-09-03T02:19:25.531Z,60.35
2022-09-03T02:20:25.572Z,59.97
2022-09-03T02:21:26.183Z,60.25
2022-09-03T02:22:25.427Z,60.54
2022-09-03T02:23:28.246Z,60.35
2022-09-03T02:24:25.401Z,60.44
2022-09-03T02:25:25.384Z,60.64
2022-09-03T02:26:25.355Z,60.54
2022-09-03T02:27:25.343Z,60.44
2022-09-03T02:28:25.321Z,60.35
2022-09-03T02:29:25.328Z,60.44
2022-09-03T02:30:25.263Z,60.54
2022-09-03T02:31:25.311Z,60.44
2022-09-03T02:32:25.235Z,60.06
2022-09-03T02:33:25.243Z,60.25
2022-09-03T02:34:25.186Z,60.73
2022-09-03T02:35:25.181Z,60.73
2022-09-03T02:36:27.442Z,61.02
2022-09-03T02:37:25.157Z,61.02
2022-09-03T02:38:25.233Z,60.54
2022-09-03T02:39:25.163Z,60.83
2022-09-03T02:40:25.085Z,60.73
2022-09-03T02:41:25.027Z,61.28
2022-09-03T02:42:25.011Z,61.76
2022-09-03T02:43:26.066Z,62.23
2022-09-03T02:44:24.962Z,62.23
2022-09-03T02:45:24.942Z,62.33
2022-09-03T02:46:24.966Z,62.43
2022-09-03T02:47:25.729Z,62.62
2022-09-03T02:48:25.061Z,62.52
2022-09-03T02:49:24.875Z,62.62
2022-09-03T02:50:24.858Z,62.71
2022-09-03T02:51:24.843Z,62.71
2022-09-03T02:52:24.814Z,63.57
2022-09-03T02:53:24.778Z,63.29
2022-09-03T02:54:24.769Z,63.48
2022-09-03T02:55:24.769Z,63.86
2022-09-03T02:56:24.718Z,64.05
2022-09-03T02:57:27.612Z,63.96
2022-09-03T02:58:24.873Z,63.76
2022-09-03T02:59:24.742Z,63.86
2022-09-03T03:00:24.630Z,63.57
2022-09-03T03:01:24.731Z,63.86
2022-09-03T03:02:24.648Z,63.57
2022-09-03T03:03:24.566Z,64.05
2022-09-03T03:04:24.545Z,63.96
2022-09-03T03:05:24.530Z,63.39
2022-09-03T03:06:24.518Z,63.39
2022-09-03T03:07:24.487Z,63.76
2022-09-03T03:08:24.762Z,63.57
2022-09-03T03:09:24.549Z,63.76
2022-09-03T03:10:25.207Z,63.76
2022-09-03T03:11:24.393Z,63.76
2022-09-03T03:12:24.408Z,63.48
2022-09-03T03:13:24.362Z,63.57
2022-09-03T03:14:24.375Z,63.57
2022-09-03T03:15:24.322Z,63.57
2022-09-03T03:16:24.378Z,63.39
2022-09-03T03:17:25.230Z,64.05
2022-09-03T03:18:24.397Z,63.67
2022-09-03T03:19:24.234Z,64.15
2022-09-03T03:20:24.241Z,63.57
2022-09-03T03:21:24.700Z,63.96
2022-09-03T03:22:24.162Z,63.39
2022-09-03T03:23:24.136Z,63.29
2022-09-03T03:24:24.195Z,64.05
2022-09-03T03:25:24.092Z,64.05
2022-09-03T03:26:24.078Z,63.29
2022-09-03T03:27:24.063Z,63.57
2022-09-03T03:28:24.195Z,63.86
2022-09-03T03:29:24.003Z,63.57
2022-09-03T03:30:24.017Z,63.76
2022-09-03T03:31:23.991Z,63.96
2022-09-03T03:32:23.944Z,63.86
2022-09-03T03:33:23.917Z,63.86
2022-09-03T03:34:23.900Z,63.76
2022-09-03T03:35:23.903Z,64.05
2022-09-03T03:36:23.886Z,64.25
2022-09-03T03:37:23.848Z,64.43
2022-09-03T03:38:23.970Z,64.25
2022-09-03T03:39:26.763Z,63.86
2022-09-03T03:40:23.794Z,64.25
2022-09-03T03:41:23.763Z,64.15
2022-09-03T03:42:23.743Z,64.25
2022-09-03T03:43:23.726Z,63.67
2022-09-03T03:44:23.683Z,63.76
2022-09-03T03:45:23.682Z,63.67
2022-09-03T03:46:23.767Z,63.67
2022-09-03T03:47:23.618Z,63.39
2022-09-03T03:48:23.698Z,63.67
2022-09-03T03:49:23.601Z,63.76
2022-09-03T03:50:24.233Z,63.86
2022-09-03T03:51:23.539Z,63.96
2022-09-03T03:52:23.544Z,63.96
2022-09-03T03:53:23.484Z,63.76
2022-09-03T03:54:23.480Z,63.96
2022-09-03T03:55:23.446Z,63.96
2022-09-03T03:56:23.440Z,63.76
2022-09-03T03:57:23.406Z,63.96
2022-09-03T03:58:23.548Z,63.76
2022-09-03T03:59:23.375Z,63.96
2022-09-03T04:00:24.790Z,63.96
2022-09-03T04:01:23.361Z,63.96
2022-09-03T04:02:23.373Z,63.48
2022-09-03T04:03:23.294Z,63.48
2022-09-03T04:04:23.253Z,63.67
2022-09-03T04:05:24.097Z,63.76
2022-09-03T04:06:23.222Z,63.48
2022-09-03T04:07:23.198Z,63.48
2022-09-03T04:08:23.859Z,63.39
2022-09-03T04:09:23.149Z,63.48
2022-09-03T04:10:23.213Z,63.57
2022-09-03T04:11:23.117Z,63.48
2022-09-03T04:12:23.115Z,63.57
2022-09-03T04:13:23.061Z,63.86
2022-09-03T04:14:23.059Z,63.67
2022-09-03T04:15:23.016Z,63.76
2022-09-03T04:16:23.189Z,63.48
2022-09-03T04:17:25.255Z,63.89
2022-09-03T04:18:22.975Z,63.89
2022-09-03T04:19:22.942Z,63.39
2022-09-03T04:20:22.919Z,63.57
2022-09-03T04:21:22.915Z,63.48
2022-09-03T04:22:22.903Z,63.51
2022-09-03T04:23:22.905Z,63.60
2022-09-03T04:24:22.832Z,63.80
2022-09-03T04:25:22.856Z,63.51
2022-09-03T04:26:22.811Z,63.42
2022-09-03T04:27:22.759Z,63.80
2022-09-03T04:28:24.472Z,64.18
2022-09-03T04:29:22.756Z,63.60
2022-09-03T04:30:22.728Z,63.70
2022-09-03T04:31:22.690Z,63.80
2022-09-03T04:32:22.680Z,64.18
2022-09-03T04:33:22.681Z,63.89
2022-09-03T04:34:23.176Z,64.18
2022-09-03T04:35:22.590Z,63.99
2022-09-03T04:36:22.595Z,63.70
2022-09-03T04:37:22.585Z,63.60
2022-09-03T04:38:22.613Z,63.70
2022-09-03T04:39:22.586Z,64.18
2022-09-03T04:40:22.525Z,63.60
2022-09-03T04:41:22.515Z,63.99
2022-09-03T04:42:22.442Z,63.70
2022-09-03T04:43:22.438Z,64.18
2022-09-03T04:44:22.430Z,63.99
2022-09-03T04:45:22.375Z,63.70
2022-09-03T04:46:22.379Z,63.80
2022-09-03T04:47:22.364Z,64.09
2022-09-03T04:48:22.312Z,63.70
2022-09-03T04:49:22.303Z,64.18
2022-09-03T04:50:22.279Z,63.51
2022-09-03T04:51:22.276Z,63.70
2022-09-03T04:52:22.772Z,63.32
2022-09-03T04:53:22.204Z,63.60
2022-09-03T04:54:22.199Z,64.28
2022-09-03T04:55:22.198Z,63.80
2022-09-03T04:56:22.146Z,63.51
2022-09-03T04:57:22.122Z,63.35
2022-09-03T04:58:22.163Z,63.73
2022-09-03T04:59:22.079Z,63.73
2022-09-03T05:00:22.089Z,63.73
2022-09-03T05:01:22.100Z,63.73
2022-09-03T05:02:22.078Z,64.12
2022-09-03T05:03:22.782Z,63.73
2022-09-03T05:04:21.975Z,63.45
2022-09-03T05:05:21.983Z,63.35
2022-09-03T05:06:21.951Z,63.45
2022-09-03T05:07:21.932Z,63.54
2022-09-03T05:08:21.933Z,63.45
2022-09-03T05:09:21.895Z,63.45
2022-09-03T05:10:21.851Z,63.73
2022-09-03T05:11:21.853Z,63.64
2022-09-03T05:12:21.817Z,64.12
2022-09-03T05:13:21.820Z,63.83
2022-09-03T05:14:21.772Z,63.83
2022-09-03T05:15:21.780Z,64.05
2022-09-03T05:16:21.787Z,64.15
2022-09-03T05:17:21.721Z,64.34
2022-09-03T05:18:21.707Z,64.53
2022-09-03T05:19:21.663Z,64.53
2022-09-03T05:20:21.667Z,64.25
2022-09-03T05:21:21.659Z,64.34
2022-09-03T05:22:21.611Z,64.34
2022-09-03T05:23:21.584Z,64.34
2022-09-03T05:24:21.589Z,64.34
2022-09-03T05:25:21.540Z,64.53
2022-09-03T05:26:21.519Z,64.34
2022-09-03T05:27:21.504Z,64.53
2022-09-03T05:28:21.513Z,64.05
2022-09-03T05:29:21.460Z,64.34
2022-09-03T05:30:21.440Z,64.43
2022-09-03T05:31:21.492Z,64.18
2022-09-03T05:32:21.424Z,64.47
2022-09-03T05:33:22.268Z,64.37
2022-09-03T05:34:21.361Z,64.37
2022-09-03T05:35:25.824Z,64.37
2022-09-03T05:36:21.345Z,64.18
2022-09-03T05:37:21.308Z,63.89
2022-09-03T05:38:21.370Z,63.89
2022-09-03T05:39:21.329Z,63.99
2022-09-03T05:40:21.241Z,63.99
2022-09-03T05:41:21.288Z,63.79
2022-09-03T05:42:21.218Z,63.79
2022-09-03T05:43:21.212Z,63.54
2022-09-03T05:44:21.157Z,64.18
2022-09-03T05:45:21.172Z,64.02
2022-09-03T05:46:21.125Z,63.51
2022-09-03T05:47:21.127Z,63.89
2022-09-03T05:48:21.160Z,63.99
2022-09-03T05:49:21.055Z,63.32
2022-09-03T05:50:21.047Z,63.83
2022-09-03T05:51:21.032Z,63.54
2022-09-03T05:52:21.044Z,63.73
2022-09-03T05:53:20.973Z,63.64
2022-09-03T05:54:20.958Z,63.64
2022-09-03T05:55:20.962Z,63.92
2022-09-03T05:56:20.927Z,63.64
2022-09-03T05:57:20.902Z,63.92
2022-09-03T05:58:20.896Z,63.45
2022-09-03T05:59:20.861Z,63.73
2022-09-03T06:00:20.851Z,63.73
2022-09-03T06:01:20.818Z,63.92
2022-09-03T06:02:20.934Z,63.73
2022-09-03T06:03:20.940Z,63.35
2022-09-03T06:04:20.750Z,63.16
2022-09-03T06:05:20.735Z,63.16
2022-09-03T06:06:20.745Z,63.06
2022-09-03T06:07:20.698Z,63.16
2022-09-03T06:08:20.670Z,62.96
2022-09-03T06:09:20.661Z,63.25
2022-09-03T06:10:25.428Z,63.06
2022-09-03T06:11:21.309Z,62.96
2022-09-03T06:12:20.594Z,62.96
2022-09-03T06:13:20.584Z,63.16
2022-09-03T06:14:20.566Z,63.16
2022-09-03T06:15:21.293Z,63.25
2022-09-03T06:16:26.693Z,63.16
2022-09-03T06:17:20.595Z,62.96
2022-09-03T06:18:20.496Z,63.25
2022-09-03T06:19:20.472Z,62.87
2022-09-03T06:20:20.434Z,63.19
2022-09-03T06:21:20.437Z,62.52
2022-09-03T06:22:20.423Z,62.52
2022-09-03T06:23:20.374Z,62.52
2022-09-03T06:24:20.404Z,62.52
2022-09-03T06:25:20.362Z,62.61
2022-09-03T06:26:20.313Z,62.71
2022-09-03T06:27:20.296Z,62.52
2022-09-03T06:28:23.408Z,62.52
2022-09-03T06:29:20.282Z,62.61
2022-09-03T06:30:20.242Z,62.90
2022-09-03T06:31:20.277Z,62.32
2022-09-03T06:32:20.208Z,62.42
2022-09-03T06:33:20.253Z,62.42
2022-09-03T06:34:20.223Z,62.42
2022-09-03T06:35:20.205Z,62.42
2022-09-03T06:36:20.227Z,61.84
2022-09-03T06:37:20.237Z,61.84
2022-09-03T06:38:20.790Z,62.16
2022-09-03T06:39:20.201Z,62.13
2022-09-03T06:40:20.049Z,62.26
2022-09-03T06:41:20.041Z,62.07
2022-09-03T06:42:20.781Z,61.97
2022-09-03T06:43:19.983Z,62.16
2022-09-03T06:44:19.976Z,62.07
2022-09-03T06:45:19.971Z,61.78
2022-09-03T06:46:20.792Z,61.68
2022-09-03T06:47:19.905Z,61.87
2022-09-03T06:48:19.948Z,61.52
2022-09-03T06:49:19.897Z,61.61
2022-09-03T06:50:20.828Z,61.52
2022-09-03T06:51:19.827Z,61.52
2022-09-03T06:52:19.825Z,61.23
2022-09-03T06:53:19.832Z,61.33
2022-09-03T06:54:19.820Z,60.94
2022-09-03T06:55:19.748Z,60.75
2022-09-03T06:56:19.751Z,60.69
2022-09-03T06:57:19.748Z,60.49
2022-09-03T06:58:19.799Z,60.39
2022-09-03T06:59:19.674Z,60.59
2022-09-03T07:00:19.672Z,60.52
2022-09-03T07:01:19.780Z,60.62
2022-09-03T07:02:19.742Z,60.33
2022-09-03T07:03:19.598Z,59.66
2022-09-03T07:04:20.396Z,59.08
2022-09-03T07:05:19.637Z,58.53
2022-09-03T07:06:19.584Z,58.34
2022-09-03T07:07:19.524Z,58.34
2022-09-03T07:08:19.562Z,58.44
2022-09-03T07:09:19.527Z,58.05
2022-09-03T07:10:19.522Z,58.05
2022-09-03T07:11:19.451Z,58.05
2022-09-03T07:12:19.445Z,57.98
2022-09-03T07:13:19.453Z,58.17
2022-09-03T07:14:19.508Z,58.17
2022-09-03T07:15:19.381Z,57.89
2022-09-03T07:16:19.424Z,57.79
2022-09-03T07:17:19.355Z,57.98
2022-09-03T07:18:20.349Z,57.24
2022-09-03T07:19:19.381Z,57.82
2022-09-03T07:20:19.304Z,57.24
2022-09-03T07:21:19.304Z,56.47
2022-09-03T07:22:19.314Z,56.40
2022-09-03T07:23:19.232Z,56.21
2022-09-03T07:24:19.227Z,56.21
2022-09-03T07:25:19.222Z,55.73
2022-09-03T07:26:19.227Z,55.85
2022-09-03T07:27:19.168Z,55.66
2022-09-03T07:28:19.211Z,55.76
2022-09-03T07:29:19.155Z,54.98
2022-09-03T07:30:19.145Z,54.79
2022-09-03T07:31:19.151Z,54.88
2022-09-03T07:32:19.077Z,53.95
2022-09-03T07:33:19.094Z,54.53
2022-09-03T07:34:19.064Z,54.43
2022-09-03T07:35:19.061Z,54.33
2022-09-03T07:36:19.005Z,54.33
2022-09-03T07:37:19.004Z,54.33
2022-09-03T07:38:18.983Z,54.33
2022-09-03T07:39:19.053Z,54.65
2022-09-03T07:40:18.946Z,53.97
2022-09-03T07:41:28.493Z,53.97
2022-09-03T07:42:18.935Z,53.69
2022-09-03T07:43:18.887Z,53.01
2022-09-03T07:44:18.913Z,52.84
2022-09-03T07:45:18.863Z,52.84
2022-09-03T07:46:18.918Z,52.55
2022-09-03T07:47:19.916Z,52.26
2022-09-03T07:48:19.400Z,52.65
2022-09-03T07:49:18.789Z,52.36
2022-09-03T07:50:18.796Z,52.55
2022-09-03T07:51:18.764Z,52.17
2022-09-03T07:52:18.784Z,52.17
2022-09-03T07:53:18.721Z,51.81
2022-09-03T07:54:18.733Z,51.81
2022-09-03T07:55:18.715Z,51.51
2022-09-03T07:56:18.729Z,50.55
2022-09-03T07:57:19.322Z,50.55
2022-09-03T07:58:18.715Z,50.93
2022-09-03T07:59:18.639Z,51.32
2022-09-03T08:00:18.629Z,51.13
2022-09-03T08:01:18.732Z,50.35
2022-09-03T08:02:18.572Z,50.86
2022-09-03T08:03:18.578Z,50.74
2022-09-03T08:04:18.559Z,50.67
2022-09-03T08:05:18.569Z,51.15
2022-09-03T08:06:18.515Z,51.35
2022-09-03T08:07:18.503Z,50.76
2022-09-03T08:08:18.494Z,50.28
2022-09-03T08:09:18.498Z,49.41
2022-09-03T08:10:18.474Z,48.57
2022-09-03T08:11:18.431Z,48.16
2022-09-03T08:12:18.415Z,48.06
2022-09-03T08:13:18.406Z,49.05
2022-09-03T08:14:18.377Z,48.44
2022-09-03T08:15:18.368Z,48.54
2022-09-03T08:16:18.397Z,48.64
2022-09-03T08:17:18.338Z,48.76
2022-09-03T08:18:18.334Z,48.95
2022-09-03T08:19:18.492Z,48.76
2022-09-03T08:20:18.284Z,48.95
2022-09-03T08:21:18.276Z,49.05
2022-09-03T08:22:18.262Z,48.57
2022-09-03T08:23:18.242Z,48.47
2022-09-03T08:24:18.231Z,48.64
2022-09-03T08:25:18.219Z,48.54
2022-09-03T08:26:18.186Z,48.66
2022-09-03T08:27:18.198Z,48.35
2022-09-03T08:28:18.841Z,48.44
2022-09-03T08:29:18.142Z,48.64
2022-09-03T08:30:18.130Z,48.64
2022-09-03T08:31:18.245Z,48.16
2022-09-03T08:32:18.083Z,48.18
2022-09-03T08:33:18.072Z,48.18
2022-09-03T08:34:18.230Z,48.27
2022-09-03T08:35:18.044Z,47.99
2022-09-03T08:36:18.070Z,47.96
2022-09-03T08:37:18.018Z,47.89
2022-09-03T08:38:18.005Z,47.96
2022-09-03T08:39:18.014Z,47.89
2022-09-03T08:40:18.005Z,47.89
2022-09-03T08:41:17.942Z,48.08
2022-09-03T08:42:18.011Z,48.08
2022-09-03T08:43:17.908Z,47.79
2022-09-03T08:44:17.900Z,48.18
2022-09-03T08:45:17.905Z,48.18
2022-09-03T08:46:17.946Z,47.99
2022-09-03T08:47:17.847Z,48.08
2022-09-03T08:48:17.851Z,48.08
2022-09-03T08:49:18.363Z,48.01
2022-09-03T08:50:17.802Z,48.20
2022-09-03T08:51:17.787Z,48.20
2022-09-03T08:52:17.788Z,47.81
2022-09-03T08:53:17.759Z,47.91
2022-09-03T08:54:17.762Z,47.24
2022-09-03T08:55:17.770Z,47.04
2022-09-03T08:56:17.797Z,47.24
2022-09-03T08:57:17.700Z,46.84
2022-09-03T08:58:17.683Z,46.26
2022-09-03T08:59:17.656Z,46.17
2022-09-03T09:00:17.634Z,46.08
2022-09-03T09:01:17.669Z,46.56
2022-09-03T09:02:17.740Z,46.26
2022-09-03T09:03:17.628Z,46.75
2022-09-03T09:04:17.588Z,46.56
2022-09-03T09:05:17.579Z,46.09
2022-09-03T09:06:17.556Z,45.68
2022-09-03T09:07:17.539Z,45.40
2022-09-03T09:08:17.571Z,45.40
2022-09-03T09:09:17.500Z,45.49
2022-09-03T09:10:17.498Z,45.98
2022-09-03T09:11:17.467Z,45.98
2022-09-03T09:12:17.440Z,46.17
2022-09-03T09:13:17.492Z,46.00
2022-09-03T09:14:17.430Z,45.61
2022-09-03T09:15:17.406Z,45.61
2022-09-03T09:16:17.512Z,45.13
2022-09-03T09:17:17.364Z,45.20
2022-09-03T09:18:17.347Z,45.10
2022-09-03T09:19:17.357Z,45.59
2022-09-03T09:20:17.346Z,45.98
2022-09-03T09:21:21.941Z,46.15
2022-09-03T09:22:17.336Z,46.26
2022-09-03T09:23:17.306Z,45.98
2022-09-03T09:24:17.266Z,46.36
2022-09-03T09:25:17.258Z,46.17
2022-09-03T09:26:17.269Z,45.88
2022-09-03T09:27:17.304Z,46.36
2022-09-03T09:28:17.189Z,46.17
2022-09-03T09:29:17.200Z,45.98
2022-09-03T09:30:17.196Z,46.56
2022-09-03T09:31:20.007Z,45.98
2022-09-03T09:32:17.918Z,46.66
2022-09-03T09:33:17.142Z,46.46
2022-09-03T09:34:17.141Z,45.98
2022-09-03T09:35:17.125Z,46.26
2022-09-03T09:36:17.098Z,46.26
2022-09-03T09:37:17.056Z,46.36
2022-09-03T09:38:17.051Z,46.36
2022-09-03T09:39:17.124Z,46.53
2022-09-03T09:40:17.044Z,46.26
2022-09-03T09:41:17.020Z,46.17
2022-09-03T09:42:16.982Z,46.26
2022-09-03T09:43:17.032Z,46.17
2022-09-03T09:44:16.940Z,46.26
2022-09-03T09:45:16.928Z,46.66
2022-09-03T09:46:16.958Z,46.17
2022-09-03T09:47:16.910Z,46.36
2022-09-03T09:48:16.886Z,46.09
2022-09-03T09:49:19.381Z,46.19
2022-09-03T09:50:25.011Z,46.29
2022-09-03T09:51:16.831Z,46.39
2022-09-03T09:52:16.844Z,46.58
2022-09-03T09:53:16.789Z,46.48
2022-09-03T09:54:16.801Z,46.48
2022-09-03T09:55:16.757Z,46.58
2022-09-03T09:56:16.764Z,46.19
2022-09-03T09:57:16.781Z,45.90
2022-09-03T09:58:17.387Z,45.90
2022-09-03T09:59:16.712Z,46.00
2022-09-03T10:00:16.820Z,46.09
2022-09-03T10:01:16.720Z,46.19
2022-09-03T10:02:21.967Z,46.19
2022-09-03T10:03:16.737Z,45.32
2022-09-03T10:04:16.617Z,45.32
2022-09-03T10:05:16.608Z,46.29
2022-09-03T10:06:16.626Z,46.29
2022-09-03T10:07:17.401Z,46.29
2022-09-03T10:08:16.621Z,46.29
2022-09-03T10:09:16.545Z,45.90
2022-09-03T10:10:16.623Z,46.31
2022-09-03T10:11:16.543Z,46.02
2022-09-03T10:12:16.491Z,46.22
2022-09-03T10:13:16.471Z,45.34
2022-09-03T10:14:16.486Z,45.27
2022-09-03T10:15:16.482Z,44.59
2022-09-03T10:16:17.466Z,44.59
2022-09-03T10:17:16.473Z,44.49
2022-09-03T10:18:16.420Z,43.91
2022-09-03T10:19:16.410Z,44.01
2022-09-03T10:20:16.405Z,43.82
2022-09-03T10:21:16.931Z,43.89
2022-09-03T10:22:16.339Z,43.99
2022-09-03T10:23:16.332Z,44.37
2022-09-03T10:24:16.329Z,44.37
2022-09-03T10:25:16.294Z,44.27
2022-09-03T10:26:16.297Z,44.18
2022-09-03T10:27:16.257Z,44.47
2022-09-03T10:28:16.267Z,44.47
2022-09-03T10:29:16.230Z,44.54
2022-09-03T10:30:16.888Z,44.45
2022-09-03T10:31:16.309Z,45.03
2022-09-03T10:32:16.188Z,44.54
2022-09-03T10:33:16.197Z,44.64
2022-09-03T10:34:16.193Z,44.64
2022-09-03T10:35:16.134Z,45.22
2022-09-03T10:36:16.136Z,45.22
2022-09-03T10:37:16.119Z,45.10
2022-09-03T10:38:16.184Z,45.01
2022-09-03T10:39:16.099Z,45.20
2022-09-03T10:40:16.230Z,45.20
2022-09-03T10:41:16.043Z,45.30
2022-09-03T10:42:16.050Z,45.37
2022-09-03T10:43:16.062Z,45.57
2022-09-03T10:44:16.030Z,45.95
2022-09-03T10:45:16.075Z,45.86
2022-09-03T10:46:18.490Z,46.15
2022-09-03T10:47:15.977Z,46.25
2022-09-03T10:48:15.959Z,46.73
2022-09-03T10:49:15.917Z,46.25
2022-09-03T10:50:15.902Z,46.42
2022-09-03T10:51:15.906Z,47.00
2022-09-03T10:52:15.894Z,46.80
2022-09-03T10:53:15.864Z,46.80
2022-09-03T10:54:15.822Z,46.90
2022-09-03T10:55:15.831Z,46.80
2022-09-03T10:56:15.826Z,47.19
2022-09-03T10:57:15.785Z,47.19
2022-09-03T10:58:15.755Z,47.00
2022-09-03T10:59:15.758Z,47.19
2022-09-03T11:00:15.751Z,46.73
2022-09-03T11:01:15.733Z,46.90
2022-09-03T11:02:15.798Z,46.73
2022-09-03T11:03:15.683Z,47.28
2022-09-03T11:04:15.690Z,47.19
2022-09-03T11:05:15.722Z,47.09
2022-09-03T11:06:15.645Z,46.90
2022-09-03T11:07:15.606Z,47.02
2022-09-03T11:08:15.721Z,46.92
2022-09-03T11:09:15.636Z,46.83
2022-09-03T11:10:15.574Z,47.09
2022-09-03T11:11:15.586Z,46.83
2022-09-03T11:12:15.537Z,46.42
2022-09-03T11:13:15.544Z,46.32
2022-09-03T11:14:15.495Z,45.93
2022-09-03T11:15:15.507Z,46.61
2022-09-03T11:16:15.523Z,46.80
2022-09-03T11:17:15.465Z,47.38
2022-09-03T11:18:15.566Z,47.09
2022-09-03T11:19:15.464Z,47.38
2022-09-03T11:20:15.395Z,47.38
2022-09-03T11:21:15.392Z,47.96
2022-09-03T11:22:15.403Z,47.77
2022-09-03T11:23:15.357Z,47.96
2022-09-03T11:24:15.370Z,48.25
2022-09-03T11:25:15.318Z,48.16
2022-09-03T11:26:15.324Z,48.16
2022-09-03T11:27:15.276Z,47.67
2022-09-03T11:28:15.392Z,47.67
2022-09-03T11:29:15.243Z,47.50
2022-09-03T11:30:15.251Z,47.58
2022-09-03T11:31:15.325Z,47.50
2022-09-03T11:32:15.207Z,47.69
2022-09-03T11:33:15.250Z,46.92
2022-09-03T11:34:23.389Z,46.63
2022-09-03T11:35:15.183Z,46.53
2022-09-03T11:36:15.209Z,46.34
2022-09-03T11:37:15.148Z,46.53
2022-09-03T11:38:15.101Z,46.44
2022-09-03T11:39:15.104Z,46.25
2022-09-03T11:40:15.115Z,46.05
2022-09-03T11:41:15.107Z,45.86
2022-09-03T11:42:15.034Z,46.32
2022-09-03T11:43:15.035Z,46.03
2022-09-03T11:44:15.039Z,46.22
2022-09-03T11:45:15.958Z,46.32
2022-09-03T11:46:15.068Z,46.61
2022-09-03T11:47:14.958Z,46.80
2022-09-03T11:48:14.967Z,46.80
2022-09-03T11:49:14.963Z,46.61
2022-09-03T11:50:14.950Z,46.42
2022-09-03T11:51:14.882Z,46.12
2022-09-03T11:52:14.888Z,46.51
2022-09-03T11:53:14.898Z,46.12
2022-09-03T11:54:14.846Z,46.70
2022-09-03T11:55:14.832Z,47.00
2022-09-03T11:56:14.811Z,46.61
2022-09-03T11:57:14.822Z,46.73
2022-09-03T11:58:14.775Z,46.80
2022-09-03T11:59:14.780Z,46.80
2022-09-03T12:00:14.743Z,47.02
2022-09-03T12:01:16.039Z,46.92
2022-09-03T12:02:14.738Z,46.83
2022-09-03T12:03:15.460Z,46.34
2022-09-03T12:04:14.783Z,46.44
2022-09-03T12:05:14.668Z,46.63
2022-09-03T12:06:14.658Z,46.05
2022-09-03T12:07:14.650Z,46.05
2022-09-03T12:08:14.624Z,46.34
2022-09-03T12:09:14.597Z,46.25
2022-09-03T12:10:14.601Z,46.44
2022-09-03T12:11:14.607Z,46.15
2022-09-03T12:12:15.437Z,46.15
2022-09-03T12:13:14.565Z,46.53
2022-09-03T12:14:14.586Z,46.34
2022-09-03T12:15:14.503Z,46.44
2022-09-03T12:16:14.585Z,46.25
2022-09-03T12:17:14.524Z,46.44
2022-09-03T12:18:14.457Z,46.34
2022-09-03T12:19:14.458Z,46.15
2022-09-03T12:20:14.447Z,46.05
2022-09-03T12:21:14.426Z,46.25
2022-09-03T12:22:14.384Z,45.86
2022-09-03T12:23:14.386Z,46.15
2022-09-03T12:24:14.378Z,46.05
2022-09-03T12:25:14.345Z,46.15
2022-09-03T12:26:14.360Z,45.86
2022-09-03T12:27:14.304Z,46.05
2022-09-03T12:28:14.311Z,46.34
2022-09-03T12:29:14.977Z,45.86
2022-09-03T12:30:14.274Z,46.25
2022-09-03T12:31:14.928Z,46.05
2022-09-03T12:32:14.238Z,45.76
2022-09-03T12:33:14.213Z,46.15
2022-09-03T12:34:14.255Z,46.25
2022-09-03T12:35:58.189Z,46.25
2022-09-03T12:36:14.167Z,45.98
2022-09-03T12:37:14.146Z,45.88
2022-09-03T12:38:18.571Z,45.88
2022-09-03T12:39:14.176Z,46.05
2022-09-03T12:40:14.101Z,46.26
2022-09-03T12:41:26.766Z,46.15
2022-09-03T12:42:14.131Z,46.08
2022-09-03T12:44:14.020Z,46.08
2022-09-03T12:45:14.027Z,45.98
2022-09-03T12:46:14.087Z,46.17
2022-09-03T12:48:14.125Z,45.98
2022-09-03T12:49:30.495Z,46.17
2022-09-03T12:50:13.956Z,46.17
2022-09-03T12:52:13.894Z,45.59
2022-09-03T12:53:13.875Z,45.20
2022-09-03T12:54:14.467Z,45.68
2022-09-03T12:55:13.874Z,45.40